Terminal Aerodrome Forecast
Issued by NWS Blacksburg, VA

Current Version | Previous Version | Text Only | Print | Product List | Glossary Off
Versions: 1 2 3 4 5 6 7 8 9 10 11 12 13 14 15

000
FTUS41 KRNK 182339
TAFBLF
TAF
KBLF 182339Z 1900/1924 28005KT P6SM SCT025
      TEMPO 1900/1901 4SM -SHRA BKN025
     FM190100 29004KT P6SM VCSH SCT025
     FM190300 29004KT P6SM FEW130
     FM190900 27004KT P6SM SCT020
     FM191300 27004KT P6SM FEW250=

USA.gov is the U.S. government's official web portal to all federal, state and local government web resources and services.